sensor_id;sensor_type;location;lat;lon;timestamp;P1;durP1;ratioP1;P2;durP2;ratioP2
84915;SDS011;75178;53.054;5.846;2024-01-30T00:02:13;28.35;;;18.10;;
84915;SDS011;75178;53.054;5.846;2024-01-30T00:04:57;27.23;;;17.63;;
84915;SDS011;75178;53.054;5.846;2024-01-30T00:07:42;28.85;;;18.23;;
84915;SDS011;75178;53.054;5.846;2024-01-30T00:10:26;27.13;;;18.77;;
84915;SDS011;75178;53.054;5.846;2024-01-30T00:13:10;24.80;;;17.30;;
84915;SDS011;75178;53.054;5.846;2024-01-30T00:15:54;28.88;;;18.05;;
84915;SDS011;75178;53.054;5.846;2024-01-30T00:18:39;29.55;;;18.70;;
84915;SDS011;75178;53.054;5.846;2024-01-30T00:21:23;26.15;;;18.13;;
84915;SDS011;75178;53.054;5.846;2024-01-30T00:24:09;27.60;;;19.55;;
84915;SDS011;75178;53.054;5.846;2024-01-30T00:26:53;28.23;;;18.33;;
84915;SDS011;75178;53.054;5.846;2024-01-30T00:29:37;26.02;;;18.95;;
84915;SDS011;75178;53.054;5.846;2024-01-30T00:32:22;27.30;;;19.27;;
84915;SDS011;75178;53.054;5.846;2024-01-30T00:35:06;31.98;;;19.92;;
84915;SDS011;75178;53.054;5.846;2024-01-30T00:37:50;25.23;;;18.65;;
84915;SDS011;75178;53.054;5.846;2024-01-30T00:40:36;28.42;;;18.58;;
84915;SDS011;75178;53.054;5.846;2024-01-30T00:43:20;29.33;;;20.10;;
84915;SDS011;75178;53.054;5.846;2024-01-30T00:46:04;23.55;;;18.67;;
84915;SDS011;75178;53.054;5.846;2024-01-30T00:48:48;27.35;;;18.52;;
84915;SDS011;75178;53.054;5.846;2024-01-30T00:51:32;27.83;;;18.63;;
84915;SDS011;75178;53.054;5.846;2024-01-30T00:54:17;30.98;;;19.25;;
84915;SDS011;75178;53.054;5.846;2024-01-30T00:57:02;28.08;;;19.73;;
84915;SDS011;75178;53.054;5.846;2024-01-30T00:59:47;28.08;;;18.52;;
84915;SDS011;75178;53.054;5.846;2024-01-30T01:02:31;27.33;;;19.08;;
84915;SDS011;75178;53.054;5.846;2024-01-30T01:05:15;26.67;;;18.17;;
84915;SDS011;75178;53.054;5.846;2024-01-30T01:07:59;33.55;;;20.05;;
84915;SDS011;75178;53.054;5.846;2024-01-30T01:10:43;25.85;;;18.50;;
84915;SDS011;75178;53.054;5.846;2024-01-30T01:13:29;26.75;;;18.83;;
84915;SDS011;75178;53.054;5.846;2024-01-30T01:16:13;28.05;;;18.63;;
84915;SDS011;75178;53.054;5.846;2024-01-30T01:18:57;27.20;;;18.58;;
84915;SDS011;75178;53.054;5.846;2024-01-30T01:21:41;27.92;;;19.10;;
84915;SDS011;75178;53.054;5.846;2024-01-30T01:24:25;26.08;;;17.85;;
84915;SDS011;75178;53.054;5.846;2024-01-30T01:27:09;27.77;;;18.60;;
84915;SDS011;75178;53.054;5.846;2024-01-30T01:29:55;27.27;;;18.05;;
84915;SDS011;75178;53.054;5.846;2024-01-30T01:32:39;26.92;;;19.13;;
84915;SDS011;75178;53.054;5.846;2024-01-30T01:35:24;28.40;;;18.75;;
84915;SDS011;75178;53.054;5.846;2024-01-30T01:38:08;29.13;;;18.73;;
84915;SDS011;75178;53.054;5.846;2024-01-30T01:40:53;31.17;;;20.30;;
84915;SDS011;75178;53.054;5.846;2024-01-30T01:43:37;29.85;;;18.60;;
84915;SDS011;75178;53.054;5.846;2024-01-30T01:46:22;27.38;;;19.38;;
84915;SDS011;75178;53.054;5.846;2024-01-30T01:49:07;29.83;;;20.55;;
84915;SDS011;75178;53.054;5.846;2024-01-30T01:51:52;31.80;;;20.17;;
84915;SDS011;75178;53.054;5.846;2024-01-30T01:54:38;27.50;;;18.77;;
84915;SDS011;75178;53.054;5.846;2024-01-30T01:57:23;28.15;;;19.83;;
84915;SDS011;75178;53.054;5.846;2024-01-30T02:00:08;33.45;;;20.25;;
84915;SDS011;75178;53.054;5.846;2024-01-30T02:02:55;28.52;;;19.17;;
84915;SDS011;75178;53.054;5.846;2024-01-30T02:05:41;31.15;;;19.23;;
84915;SDS011;75178;53.054;5.846;2024-01-30T02:08:26;30.88;;;18.77;;
84915;SDS011;75178;53.054;5.846;2024-01-30T02:11:10;28.45;;;19.77;;
84915;SDS011;75178;53.054;5.846;2024-01-30T02:13:55;24.92;;;18.40;;
84915;SDS011;75178;53.054;5.846;2024-01-30T02:16:39;28.02;;;18.98;;
84915;SDS011;75178;53.054;5.846;2024-01-30T02:19:25;28.73;;;19.55;;
84915;SDS011;75178;53.054;5.846;2024-01-30T02:22:10;33.70;;;21.60;;
84915;SDS011;75178;53.054;5.846;2024-01-30T02:24:55;29.88;;;19.58;;
84915;SDS011;75178;53.054;5.846;2024-01-30T02:27:39;30.83;;;20.20;;
84915;SDS011;75178;53.054;5.846;2024-01-30T02:30:23;30.42;;;20.23;;
84915;SDS011;75178;53.054;5.846;2024-01-30T02:33:07;29.55;;;19.42;;
84915;SDS011;75178;53.054;5.846;2024-01-30T02:35:51;28.00;;;19.45;;
84915;SDS011;75178;53.054;5.846;2024-01-30T02:38:37;28.13;;;19.55;;
84915;SDS011;75178;53.054;5.846;2024-01-30T02:41:21;31.55;;;19.85;;
84915;SDS011;75178;53.054;5.846;2024-01-30T02:44:05;27.95;;;19.08;;
84915;SDS011;75178;53.054;5.846;2024-01-30T02:46:49;27.17;;;19.40;;
84915;SDS011;75178;53.054;5.846;2024-01-30T02:49:33;27.33;;;19.80;;
84915;SDS011;75178;53.054;5.846;2024-01-30T02:52:17;27.85;;;19.27;;
84915;SDS011;75178;53.054;5.846;2024-01-30T02:55:03;26.40;;;19.08;;
84915;SDS011;75178;53.054;5.846;2024-01-30T02:57:48;26.33;;;17.90;;
84915;SDS011;75178;53.054;5.846;2024-01-30T03:00:32;25.10;;;18.50;;
84915;SDS011;75178;53.054;5.846;2024-01-30T03:03:16;27.08;;;18.00;;
84915;SDS011;75178;53.054;5.846;2024-01-30T03:06:00;29.15;;;18.35;;
84915;SDS011;75178;53.054;5.846;2024-01-30T03:08:44;31.10;;;19.73;;
84915;SDS011;75178;53.054;5.846;2024-01-30T03:11:30;27.30;;;19.38;;
84915;SDS011;75178;53.054;5.846;2024-01-30T03:14:14;26.95;;;18.90;;
84915;SDS011;75178;53.054;5.846;2024-01-30T03:16:58;34.53;;;19.23;;
84915;SDS011;75178;53.054;5.846;2024-01-30T03:19:42;25.95;;;18.65;;
84915;SDS011;75178;53.054;5.846;2024-01-30T03:22:26;25.48;;;18.88;;
84915;SDS011;75178;53.054;5.846;2024-01-30T03:25:10;31.08;;;18.73;;
84915;SDS011;75178;53.054;5.846;2024-01-30T03:27:56;23.95;;;18.20;;
84915;SDS011;75178;53.054;5.846;2024-01-30T03:30:40;30.27;;;19.88;;
84915;SDS011;75178;53.054;5.846;2024-01-30T03:33:25;28.10;;;19.25;;
84915;SDS011;75178;53.054;5.846;2024-01-30T03:36:09;26.52;;;18.67;;
84915;SDS011;75178;53.054;5.846;2024-01-30T03:38:54;29.25;;;19.27;;
84915;SDS011;75178;53.054;5.846;2024-01-30T03:41:38;29.60;;;20.27;;
84915;SDS011;75178;53.054;5.846;2024-01-30T03:44:27;25.92;;;19.52;;
84915;SDS011;75178;53.054;5.846;2024-01-30T03:47:11;27.40;;;19.30;;
84915;SDS011;75178;53.054;5.846;2024-01-30T03:49:55;30.00;;;19.33;;
84915;SDS011;75178;53.054;5.846;2024-01-30T03:52:39;28.75;;;18.67;;
84915;SDS011;75178;53.054;5.846;2024-01-30T03:55:23;25.95;;;18.55;;
84915;SDS011;75178;53.054;5.846;2024-01-30T03:58:08;25.63;;;18.27;;
84915;SDS011;75178;53.054;5.846;2024-01-30T04:00:53;29.30;;;20.42;;
84915;SDS011;75178;53.054;5.846;2024-01-30T04:03:37;29.48;;;19.33;;
84915;SDS011;75178;53.054;5.846;2024-01-30T04:06:21;25.55;;;17.77;;
84915;SDS011;75178;53.054;5.846;2024-01-30T04:09:05;27.52;;;19.38;;
84915;SDS011;75178;53.054;5.846;2024-01-30T04:11:50;26.38;;;17.35;;
84915;SDS011;75178;53.054;5.846;2024-01-30T04:14:34;23.75;;;17.48;;
84915;SDS011;75178;53.054;5.846;2024-01-30T04:17:19;28.85;;;18.85;;
84915;SDS011;75178;53.054;5.846;2024-01-30T04:20:04;24.80;;;17.25;;
84915;SDS011;75178;53.054;5.846;2024-01-30T04:22:49;23.35;;;17.95;;
84915;SDS011;75178;53.054;5.846;2024-01-30T04:25:33;26.33;;;17.42;;
84915;SDS011;75178;53.054;5.846;2024-01-30T04:28:17;26.08;;;17.95;;
84915;SDS011;75178;53.054;5.846;2024-01-30T04:31:02;29.25;;;18.65;;
84915;SDS011;75178;53.054;5.846;2024-01-30T04:33:48;29.58;;;18.55;;
84915;SDS011;75178;53.054;5.846;2024-01-30T04:36:32;25.17;;;16.98;;
84915;SDS011;75178;53.054;5.846;2024-01-30T04:39:16;26.60;;;17.10;;
84915;SDS011;75178;53.054;5.846;2024-01-30T04:42:00;23.15;;;16.42;;
84915;SDS011;75178;53.054;5.846;2024-01-30T04:44:44;24.40;;;16.70;;
84915;SDS011;75178;53.054;5.846;2024-01-30T04:47:28;27.95;;;16.60;;
84915;SDS011;75178;53.054;5.846;2024-01-30T04:50:14;23.63;;;16.73;;
84915;SDS011;75178;53.054;5.846;2024-01-30T04:52:58;25.92;;;17.30;;
84915;SDS011;75178;53.054;5.846;2024-01-30T04:55:42;24.88;;;16.98;;
84915;SDS011;75178;53.054;5.846;2024-01-30T04:58:26;28.05;;;17.05;;
84915;SDS011;75178;53.054;5.846;2024-01-30T05:01:14;24.60;;;17.02;;
84915;SDS011;75178;53.054;5.846;2024-01-30T05:03:58;26.02;;;17.35;;
84915;SDS011;75178;53.054;5.846;2024-01-30T05:06:44;25.23;;;16.98;;
84915;SDS011;75178;53.054;5.846;2024-01-30T05:09:29;23.70;;;17.15;;
84915;SDS011;75178;53.054;5.846;2024-01-30T05:12:14;21.52;;;16.40;;
84915;SDS011;75178;53.054;5.846;2024-01-30T05:14:58;21.15;;;15.75;;
84915;SDS011;75178;53.054;5.846;2024-01-30T05:17:42;25.00;;;16.77;;
84915;SDS011;75178;53.054;5.846;2024-01-30T05:20:26;19.73;;;14.82;;
84915;SDS011;75178;53.054;5.846;2024-01-30T05:23:11;26.02;;;14.98;;
84915;SDS011;75178;53.054;5.846;2024-01-30T05:25:55;21.55;;;15.50;;
84915;SDS011;75178;53.054;5.846;2024-01-30T05:28:40;23.23;;;15.30;;
84915;SDS011;75178;53.054;5.846;2024-01-30T05:31:24;21.70;;;15.10;;
84915;SDS011;75178;53.054;5.846;2024-01-30T05:34:08;23.73;;;16.85;;
84915;SDS011;75178;53.054;5.846;2024-01-30T05:36:52;22.13;;;14.90;;
84915;SDS011;75178;53.054;5.846;2024-01-30T05:39:37;23.55;;;16.38;;
84915;SDS011;75178;53.054;5.846;2024-01-30T05:42:22;20.50;;;14.63;;
84915;SDS011;75178;53.054;5.846;2024-01-30T05:45:06;22.80;;;14.68;;
84915;SDS011;75178;53.054;5.846;2024-01-30T05:47:50;21.02;;;14.95;;
84915;SDS011;75178;53.054;5.846;2024-01-30T05:50:35;24.85;;;16.17;;
84915;SDS011;75178;53.054;5.846;2024-01-30T05:53:19;21.13;;;14.70;;
84915;SDS011;75178;53.054;5.846;2024-01-30T05:56:05;22.77;;;14.90;;
84915;SDS011;75178;53.054;5.846;2024-01-30T05:58:49;20.02;;;15.48;;
84915;SDS011;75178;53.054;5.846;2024-01-30T06:01:34;23.15;;;14.98;;
84915;SDS011;75178;53.054;5.846;2024-01-30T06:04:18;24.52;;;15.13;;
84915;SDS011;75178;53.054;5.846;2024-01-30T06:07:02;22.30;;;15.93;;
84915;SDS011;75178;53.054;5.846;2024-01-30T06:09:46;21.10;;;15.27;;
84915;SDS011;75178;53.054;5.846;2024-01-30T06:12:32;22.42;;;14.90;;
84915;SDS011;75178;53.054;5.846;2024-01-30T06:15:16;24.15;;;15.07;;
84915;SDS011;75178;53.054;5.846;2024-01-30T06:18:04;24.67;;;15.88;;
84915;SDS011;75178;53.054;5.846;2024-01-30T06:21:01;24.23;;;16.60;;
84915;SDS011;75178;53.054;5.846;2024-01-30T06:23:48;21.40;;;15.63;;
84915;SDS011;75178;53.054;5.846;2024-01-30T06:26:33;21.02;;;15.88;;
84915;SDS011;75178;53.054;5.846;2024-01-30T06:29:19;22.25;;;16.17;;
84915;SDS011;75178;53.054;5.846;2024-01-30T06:32:04;23.48;;;15.95;;
84915;SDS011;75178;53.054;5.846;2024-01-30T06:34:49;28.35;;;15.82;;
84915;SDS011;75178;53.054;5.846;2024-01-30T06:37:33;21.98;;;15.75;;
84915;SDS011;75178;53.054;5.846;2024-01-30T06:40:17;22.70;;;16.63;;
84915;SDS011;75178;53.054;5.846;2024-01-30T06:43:02;23.65;;;15.27;;
84915;SDS011;75178;53.054;5.846;2024-01-30T06:45:48;21.20;;;15.27;;
84915;SDS011;75178;53.054;5.846;2024-01-30T06:48:32;24.20;;;16.00;;
84915;SDS011;75178;53.054;5.846;2024-01-30T06:51:16;27.55;;;16.23;;
84915;SDS011;75178;53.054;5.846;2024-01-30T06:54:00;20.10;;;14.27;;
84915;SDS011;75178;53.054;5.846;2024-01-30T06:56:44;22.85;;;15.57;;
84915;SDS011;75178;53.054;5.846;2024-01-30T06:59:28;26.38;;;15.38;;
84915;SDS011;75178;53.054;5.846;2024-01-30T07:02:14;22.33;;;15.93;;
84915;SDS011;75178;53.054;5.846;2024-01-30T07:04:58;25.98;;;15.30;;
84915;SDS011;75178;53.054;5.846;2024-01-30T07:07:42;23.55;;;14.52;;
84915;SDS011;75178;53.054;5.846;2024-01-30T07:10:26;23.23;;;15.32;;
84915;SDS011;75178;53.054;5.846;2024-01-30T07:13:11;21.42;;;15.18;;
84915;SDS011;75178;53.054;5.846;2024-01-30T07:15:55;21.45;;;15.82;;
84915;SDS011;75178;53.054;5.846;2024-01-30T07:18:40;25.63;;;15.60;;
84915;SDS011;75178;53.054;5.846;2024-01-30T07:21:24;24.10;;;15.23;;
84915;SDS011;75178;53.054;5.846;2024-01-30T07:24:09;25.85;;;16.13;;
84915;SDS011;75178;53.054;5.846;2024-01-30T07:26:53;22.52;;;15.52;;
84915;SDS011;75178;53.054;5.846;2024-01-30T07:29:37;23.35;;;14.77;;
84915;SDS011;75178;53.054;5.846;2024-01-30T07:32:35;22.40;;;14.48;;
84915;SDS011;75178;53.054;5.846;2024-01-30T07:35:46;26.80;;;14.75;;
84915;SDS011;75178;53.054;5.846;2024-01-30T07:38:31;23.73;;;14.98;;
84915;SDS011;75178;53.054;5.846;2024-01-30T07:41:16;19.38;;;14.18;;
84915;SDS011;75178;53.054;5.846;2024-01-30T07:44:00;23.42;;;14.40;;
84915;SDS011;75178;53.054;5.846;2024-01-30T07:46:44;19.45;;;14.38;;
84915;SDS011;75178;53.054;5.846;2024-01-30T07:49:28;19.45;;;14.20;;
84915;SDS011;75178;53.054;5.846;2024-01-30T07:52:13;19.63;;;13.07;;
84915;SDS011;75178;53.054;5.846;2024-01-30T07:54:57;18.73;;;13.73;;
84915;SDS011;75178;53.054;5.846;2024-01-30T07:57:42;22.10;;;14.73;;
84915;SDS011;75178;53.054;5.846;2024-01-30T08:00:26;21.35;;;13.93;;
84915;SDS011;75178;53.054;5.846;2024-01-30T08:03:11;22.02;;;14.18;;
84915;SDS011;75178;53.054;5.846;2024-01-30T08:05:55;20.77;;;14.45;;
84915;SDS011;75178;53.054;5.846;2024-01-30T08:08:40;22.63;;;12.77;;
84915;SDS011;75178;53.054;5.846;2024-01-30T08:11:25;21.15;;;14.25;;
84915;SDS011;75178;53.054;5.846;2024-01-30T08:14:09;19.67;;;13.68;;
84915;SDS011;75178;53.054;5.846;2024-01-30T08:16:53;22.23;;;14.52;;
84915;SDS011;75178;53.054;5.846;2024-01-30T08:19:37;23.30;;;14.45;;
84915;SDS011;75178;53.054;5.846;2024-01-30T08:22:21;24.15;;;14.30;;
84915;SDS011;75178;53.054;5.846;2024-01-30T08:25:07;22.00;;;14.02;;
84915;SDS011;75178;53.054;5.846;2024-01-30T08:27:52;26.20;;;15.15;;
84915;SDS011;75178;53.054;5.846;2024-01-30T08:30:36;26.73;;;16.30;;
84915;SDS011;75178;53.054;5.846;2024-01-30T08:33:20;22.45;;;15.10;;
84915;SDS011;75178;53.054;5.846;2024-01-30T08:36:04;21.25;;;15.57;;
84915;SDS011;75178;53.054;5.846;2024-01-30T08:38:49;24.30;;;16.30;;
84915;SDS011;75178;53.054;5.846;2024-01-30T08:41:35;26.17;;;15.20;;
84915;SDS011;75178;53.054;5.846;2024-01-30T08:44:19;23.35;;;14.70;;
84915;SDS011;75178;53.054;5.846;2024-01-30T08:47:04;24.42;;;14.05;;
84915;SDS011;75178;53.054;5.846;2024-01-30T08:49:48;25.80;;;14.70;;
84915;SDS011;75178;53.054;5.846;2024-01-30T08:52:32;28.10;;;14.68;;
84915;SDS011;75178;53.054;5.846;2024-01-30T08:55:17;26.20;;;14.38;;
84915;SDS011;75178;53.054;5.846;2024-01-30T08:58:02;20.95;;;14.20;;
84915;SDS011;75178;53.054;5.846;2024-01-30T09:00:46;23.77;;;13.65;;
84915;SDS011;75178;53.054;5.846;2024-01-30T09:03:31;28.65;;;13.63;;
84915;SDS011;75178;53.054;5.846;2024-01-30T09:06:15;31.10;;;14.43;;
84915;SDS011;75178;53.054;5.846;2024-01-30T09:08:59;19.30;;;12.38;;
84915;SDS011;75178;53.054;5.846;2024-01-30T09:11:44;21.77;;;13.75;;
84915;SDS011;75178;53.054;5.846;2024-01-30T09:14:29;26.65;;;14.38;;
84915;SDS011;75178;53.054;5.846;2024-01-30T09:17:13;19.35;;;12.48;;
84915;SDS011;75178;53.054;5.846;2024-01-30T09:19:57;24.17;;;13.50;;
84915;SDS011;75178;53.054;5.846;2024-01-30T09:22:41;21.73;;;13.43;;
84915;SDS011;75178;53.054;5.846;2024-01-30T09:25:26;20.65;;;13.13;;
84915;SDS011;75178;53.054;5.846;2024-01-30T09:28:10;17.42;;;12.60;;
84915;SDS011;75178;53.054;5.846;2024-01-30T09:30:55;19.48;;;11.70;;
84915;SDS011;75178;53.054;5.846;2024-01-30T09:33:39;21.48;;;13.40;;
84915;SDS011;75178;53.054;5.846;2024-01-30T09:36:24;25.20;;;12.60;;
84915;SDS011;75178;53.054;5.846;2024-01-30T09:39:08;32.00;;;12.60;;
84915;SDS011;75178;53.054;5.846;2024-01-30T09:41:55;22.77;;;12.70;;
84915;SDS011;75178;53.054;5.846;2024-01-30T09:44:45;30.77;;;12.32;;
84915;SDS011;75178;53.054;5.846;2024-01-30T09:47:37;19.30;;;12.45;;
84915;SDS011;75178;53.054;5.846;2024-01-30T09:50:25;26.42;;;12.88;;
84915;SDS011;75178;53.054;5.846;2024-01-30T09:53:10;23.52;;;11.52;;
84915;SDS011;75178;53.054;5.846;2024-01-30T09:55:56;20.27;;;12.70;;
84915;SDS011;75178;53.054;5.846;2024-01-30T09:58:41;21.38;;;12.77;;
84915;SDS011;75178;53.054;5.846;2024-01-30T10:01:25;27.52;;;13.02;;
84915;SDS011;75178;53.054;5.846;2024-01-30T10:04:11;19.10;;;12.15;;
84915;SDS011;75178;53.054;5.846;2024-01-30T10:06:55;17.33;;;10.98;;
84915;SDS011;75178;53.054;5.846;2024-01-30T10:09:40;21.95;;;13.10;;
84915;SDS011;75178;53.054;5.846;2024-01-30T10:12:26;23.02;;;12.35;;
84915;SDS011;75178;53.054;5.846;2024-01-30T10:15:11;20.30;;;10.75;;
84915;SDS011;75178;53.054;5.846;2024-01-30T10:17:57;17.73;;;10.68;;
84915;SDS011;75178;53.054;5.846;2024-01-30T10:20:43;20.80;;;11.30;;
84915;SDS011;75178;53.054;5.846;2024-01-30T10:23:27;21.58;;;10.45;;
84915;SDS011;75178;53.054;5.846;2024-01-30T10:26:13;19.90;;;10.43;;
84915;SDS011;75178;53.054;5.846;2024-01-30T10:28:59;22.20;;;10.50;;
84915;SDS011;75178;53.054;5.846;2024-01-30T10:31:43;19.38;;;9.38;;
84915;SDS011;75178;53.054;5.846;2024-01-30T10:34:28;13.45;;;8.65;;
84915;SDS011;75178;53.054;5.846;2024-01-30T10:37:13;21.92;;;8.68;;
84915;SDS011;75178;53.054;5.846;2024-01-30T10:40:00;20.60;;;8.43;;
84915;SDS011;75178;53.054;5.846;2024-01-30T10:42:47;13.23;;;6.63;;
84915;SDS011;75178;53.054;5.846;2024-01-30T10:45:32;18.25;;;6.38;;
84915;SDS011;75178;53.054;5.846;2024-01-30T10:48:19;18.98;;;6.00;;
84915;SDS011;75178;53.054;5.846;2024-01-30T10:51:10;17.77;;;4.60;;
84915;SDS011;75178;53.054;5.846;2024-01-30T10:53:56;13.98;;;3.22;;
84915;SDS011;75178;53.054;5.846;2024-01-30T10:56:41;18.42;;;3.30;;
84915;SDS011;75178;53.054;5.846;2024-01-30T10:59:26;12.35;;;3.30;;
84915;SDS011;75178;53.054;5.846;2024-01-30T11:02:10;19.98;;;4.90;;
84915;SDS011;75178;53.054;5.846;2024-01-30T11:04:55;19.20;;;4.25;;
84915;SDS011;75178;53.054;5.846;2024-01-30T11:07:40;13.02;;;2.80;;
84915;SDS011;75178;53.054;5.846;2024-01-30T11:10:27;12.55;;;3.15;;
84915;SDS011;75178;53.054;5.846;2024-01-30T11:13:13;10.88;;;2.75;;
84915;SDS011;75178;53.054;5.846;2024-01-30T11:16:00;15.45;;;3.50;;
84915;SDS011;75178;53.054;5.846;2024-01-30T11:18:49;15.13;;;4.35;;
84915;SDS011;75178;53.054;5.846;2024-01-30T11:21:38;13.63;;;3.13;;
84915;SDS011;75178;53.054;5.846;2024-01-30T11:24:25;12.80;;;3.40;;
84915;SDS011;75178;53.054;5.846;2024-01-30T11:27:11;15.98;;;3.83;;
84915;SDS011;75178;53.054;5.846;2024-01-30T11:30:00;10.00;;;3.72;;
84915;SDS011;75178;53.054;5.846;2024-01-30T11:32:45;9.65;;;2.92;;
84915;SDS011;75178;53.054;5.846;2024-01-30T11:35:29;6.50;;;2.50;;
84915;SDS011;75178;53.054;5.846;2024-01-30T11:38:15;8.95;;;2.33;;
84915;SDS011;75178;53.054;5.846;2024-01-30T11:40:59;7.63;;;2.22;;
84915;SDS011;75178;53.054;5.846;2024-01-30T11:43:52;9.48;;;2.58;;
84915;SDS011;75178;53.054;5.846;2024-01-30T11:46:36;4.63;;;1.85;;
84915;SDS011;75178;53.054;5.846;2024-01-30T11:49:21;9.13;;;2.40;;
84915;SDS011;75178;53.054;5.846;2024-01-30T11:52:06;13.82;;;2.80;;
84915;SDS011;75178;53.054;5.846;2024-01-30T11:54:51;14.02;;;2.95;;
84915;SDS011;75178;53.054;5.846;2024-01-30T11:57:35;5.47;;;2.03;;
84915;SDS011;75178;53.054;5.846;2024-01-30T12:00:21;11.43;;;2.20;;
84915;SDS011;75178;53.054;5.846;2024-01-30T12:03:05;10.30;;;2.10;;
84915;SDS011;75178;53.054;5.846;2024-01-30T12:05:54;9.82;;;1.60;;
84915;SDS011;75178;53.054;5.846;2024-01-30T12:08:39;6.80;;;1.42;;
84915;SDS011;75178;53.054;5.846;2024-01-30T12:11:23;4.43;;;1.92;;
84915;SDS011;75178;53.054;5.846;2024-01-30T12:14:07;6.03;;;1.40;;
84915;SDS011;75178;53.054;5.846;2024-01-30T12:16:52;5.93;;;1.50;;
84915;SDS011;75178;53.054;5.846;2024-01-30T12:19:37;9.73;;;2.00;;
84915;SDS011;75178;53.054;5.846;2024-01-30T12:22:21;8.32;;;1.80;;
84915;SDS011;75178;53.054;5.846;2024-01-30T12:25:07;6.63;;;2.15;;
84915;SDS011;75178;53.054;5.846;2024-01-30T12:27:52;8.07;;;1.90;;
84915;SDS011;75178;53.054;5.846;2024-01-30T12:30:36;7.28;;;2.05;;
84915;SDS011;75178;53.054;5.846;2024-01-30T12:33:22;9.07;;;2.00;;
84915;SDS011;75178;53.054;5.846;2024-01-30T12:36:11;7.13;;;1.80;;
84915;SDS011;75178;53.054;5.846;2024-01-30T12:38:56;5.25;;;1.73;;
84915;SDS011;75178;53.054;5.846;2024-01-30T12:41:40;6.30;;;2.35;;
84915;SDS011;75178;53.054;5.846;2024-01-30T12:44:24;6.60;;;2.25;;
84915;SDS011;75178;53.054;5.846;2024-01-30T12:47:08;5.22;;;1.83;;
84915;SDS011;75178;53.054;5.846;2024-01-30T12:49:54;6.38;;;2.08;;
84915;SDS011;75178;53.054;5.846;2024-01-30T12:52:39;3.50;;;1.33;;
84915;SDS011;75178;53.054;5.846;2024-01-30T12:55:24;3.13;;;1.50;;
84915;SDS011;75178;53.054;5.846;2024-01-30T12:58:08;4.28;;;1.23;;
84915;SDS011;75178;53.054;5.846;2024-01-30T13:00:52;4.68;;;1.58;;
84915;SDS011;75178;53.054;5.846;2024-01-30T13:03:37;3.50;;;1.40;;
84915;SDS011;75178;53.054;5.846;2024-01-30T13:06:22;3.33;;;1.33;;
84915;SDS011;75178;53.054;5.846;2024-01-30T13:09:07;6.50;;;2.03;;
84915;SDS011;75178;53.054;5.846;2024-01-30T13:11:51;8.30;;;2.25;;
84915;SDS011;75178;53.054;5.846;2024-01-30T13:14:35;11.30;;;2.35;;
84915;SDS011;75178;53.054;5.846;2024-01-30T13:17:19;11.18;;;2.55;;
84915;SDS011;75178;53.054;5.846;2024-01-30T13:20:03;5.72;;;1.88;;
84915;SDS011;75178;53.054;5.846;2024-01-30T13:22:49;9.60;;;2.20;;
84915;SDS011;75178;53.054;5.846;2024-01-30T13:25:34;11.60;;;2.53;;
84915;SDS011;75178;53.054;5.846;2024-01-30T13:28:18;5.95;;;2.63;;
84915;SDS011;75178;53.054;5.846;2024-01-30T13:31:02;11.23;;;2.08;;
84915;SDS011;75178;53.054;5.846;2024-01-30T13:33:47;8.90;;;2.35;;
84915;SDS011;75178;53.054;5.846;2024-01-30T13:36:31;8.43;;;2.67;;
84915;SDS011;75178;53.054;5.846;2024-01-30T13:39:17;14.02;;;3.35;;
84915;SDS011;75178;53.054;5.846;2024-01-30T13:42:01;7.93;;;2.60;;
84915;SDS011;75178;53.054;5.846;2024-01-30T13:44:46;7.60;;;2.47;;
84915;SDS011;75178;53.054;5.846;2024-01-30T13:47:30;9.65;;;2.63;;
84915;SDS011;75178;53.054;5.846;2024-01-30T13:50:14;8.90;;;2.33;;
84915;SDS011;75178;53.054;5.846;2024-01-30T13:52:58;8.13;;;2.70;;
84915;SDS011;75178;53.054;5.846;2024-01-30T13:55:44;13.70;;;2.53;;
84915;SDS011;75178;53.054;5.846;2024-01-30T13:58:28;11.63;;;3.00;;
84915;SDS011;75178;53.054;5.846;2024-01-30T14:01:12;6.97;;;2.97;;
84915;SDS011;75178;53.054;5.846;2024-01-30T14:03:56;9.43;;;3.00;;
84915;SDS011;75178;53.054;5.846;2024-01-30T14:06:40;8.85;;;3.58;;
84915;SDS011;75178;53.054;5.846;2024-01-30T14:09:24;13.30;;;3.63;;
84915;SDS011;75178;53.054;5.846;2024-01-30T14:12:10;13.60;;;4.75;;
84915;SDS011;75178;53.054;5.846;2024-01-30T14:14:54;9.95;;;3.97;;
84915;SDS011;75178;53.054;5.846;2024-01-30T14:17:38;10.82;;;3.72;;
84915;SDS011;75178;53.054;5.846;2024-01-30T14:20:22;7.22;;;3.72;;
84915;SDS011;75178;53.054;5.846;2024-01-30T14:23:07;10.45;;;3.45;;
84915;SDS011;75178;53.054;5.846;2024-01-30T14:25:51;7.10;;;3.15;;
84915;SDS011;75178;53.054;5.846;2024-01-30T14:28:36;12.85;;;3.40;;
84915;SDS011;75178;53.054;5.846;2024-01-30T14:31:20;8.48;;;3.97;;
84915;SDS011;75178;53.054;5.846;2024-01-30T14:34:04;14.77;;;4.40;;
84915;SDS011;75178;53.054;5.846;2024-01-30T14:36:48;11.23;;;4.30;;
84915;SDS011;75178;53.054;5.846;2024-01-30T14:39:32;11.35;;;4.38;;
84915;SDS011;75178;53.054;5.846;2024-01-30T14:42:17;12.98;;;4.90;;
84915;SDS011;75178;53.054;5.846;2024-01-30T14:45:02;7.65;;;4.07;;
84915;SDS011;75178;53.054;5.846;2024-01-30T14:47:47;10.68;;;4.13;;
84915;SDS011;75178;53.054;5.846;2024-01-30T14:50:31;8.43;;;3.78;;
84915;SDS011;75178;53.054;5.846;2024-01-30T14:53:15;9.75;;;4.30;;
84915;SDS011;75178;53.054;5.846;2024-01-30T14:55:59;10.88;;;4.88;;
84915;SDS011;75178;53.054;5.846;2024-01-30T14:58:44;11.30;;;4.30;;
84915;SDS011;75178;53.054;5.846;2024-01-30T15:01:29;6.65;;;4.18;;
84915;SDS011;75178;53.054;5.846;2024-01-30T15:04:13;7.15;;;3.50;;
84915;SDS011;75178;53.054;5.846;2024-01-30T15:06:57;6.72;;;3.08;;
84915;SDS011;75178;53.054;5.846;2024-01-30T15:09:41;6.28;;;3.33;;
84915;SDS011;75178;53.054;5.846;2024-01-30T15:12:25;8.32;;;3.10;;
84915;SDS011;75178;53.054;5.846;2024-01-30T15:15:09;4.00;;;3.22;;
84915;SDS011;75178;53.054;5.846;2024-01-30T15:17:55;6.13;;;3.03;;
84915;SDS011;75178;53.054;5.846;2024-01-30T15:20:39;3.95;;;2.65;;
84915;SDS011;75178;53.054;5.846;2024-01-30T15:23:23;11.38;;;3.67;;
84915;SDS011;75178;53.054;5.846;2024-01-30T15:26:07;9.07;;;4.15;;
84915;SDS011;75178;53.054;5.846;2024-01-30T15:28:51;8.77;;;3.78;;
84915;SDS011;75178;53.054;5.846;2024-01-30T15:31:36;15.95;;;5.03;;
84915;SDS011;75178;53.054;5.846;2024-01-30T15:34:21;10.38;;;4.85;;
84915;SDS011;75178;53.054;5.846;2024-01-30T15:37:05;18.17;;;5.95;;
84915;SDS011;75178;53.054;5.846;2024-01-30T15:39:50;16.63;;;5.45;;
84915;SDS011;75178;53.054;5.846;2024-01-30T15:42:34;20.02;;;5.60;;
84915;SDS011;75178;53.054;5.846;2024-01-30T15:45:18;22.80;;;5.97;;
84915;SDS011;75178;53.054;5.846;2024-01-30T15:48:03;13.60;;;4.90;;
84915;SDS011;75178;53.054;5.846;2024-01-30T15:50:49;11.10;;;4.05;;
84915;SDS011;75178;53.054;5.846;2024-01-30T15:53:33;18.10;;;5.00;;
84915;SDS011;75178;53.054;5.846;2024-01-30T15:56:17;18.20;;;4.70;;
84915;SDS011;75178;53.054;5.846;2024-01-30T15:59:02;22.42;;;5.35;;
84915;SDS011;75178;53.054;5.846;2024-01-30T16:01:46;12.00;;;4.18;;
84915;SDS011;75178;53.054;5.846;2024-01-30T16:04:30;14.48;;;3.58;;
84915;SDS011;75178;53.054;5.846;2024-01-30T16:07:16;15.00;;;3.80;;
84915;SDS011;75178;53.054;5.846;2024-01-30T16:10:00;17.65;;;4.45;;
84915;SDS011;75178;53.054;5.846;2024-01-30T16:12:45;15.50;;;3.75;;